sensor_id;sensor_type;location;lat;lon;timestamp;temperature;humidity
35680;DHT22;21803;53.586;10.040;2023-10-13T00:01:56;22.20;56.20
35680;DHT22;21803;53.586;10.040;2023-10-13T00:04:27;22.30;56.20
35680;DHT22;21803;53.586;10.040;2023-10-13T00:06:55;22.20;56.20
35680;DHT22;21803;53.586;10.040;2023-10-13T00:09:24;22.20;56.20
35680;DHT22;21803;53.586;10.040;2023-10-13T00:11:52;22.20;56.20
35680;DHT22;21803;53.586;10.040;2023-10-13T00:14:19;22.20;56.20
35680;DHT22;21803;53.586;10.040;2023-10-13T00:16:46;22.20;56.20
35680;DHT22;21803;53.586;10.040;2023-10-13T00:19:34;20.40;55.30
35680;DHT22;21803;53.586;10.040;2023-10-13T00:22:08;22.20;56.10
35680;DHT22;21803;53.586;10.040;2023-10-13T00:24:41;22.20;56.10
35680;DHT22;21803;53.586;10.040;2023-10-13T00:27:20;22.20;56.10
35680;DHT22;21803;53.586;10.040;2023-10-13T00:30:05;22.20;56.10
35680;DHT22;21803;53.586;10.040;2023-10-13T00:32:52;22.20;56.20
35680;DHT22;21803;53.586;10.040;2023-10-13T00:35:21;22.20;56.10
35680;DHT22;21803;53.586;10.040;2023-10-13T00:38:05;22.20;56.20
35680;DHT22;21803;53.586;10.040;2023-10-13T00:40:43;22.20;56.10
35680;DHT22;21803;53.586;10.040;2023-10-13T00:43:22;22.20;56.20
35680;DHT22;21803;53.586;10.040;2023-10-13T00:45:53;22.30;56.20
35680;DHT22;21803;53.586;10.040;2023-10-13T00:48:40;22.20;56.20
35680;DHT22;21803;53.586;10.040;2023-10-13T00:51:19;22.30;56.20
35680;DHT22;21803;53.586;10.040;2023-10-13T00:54:05;22.30;56.20
35680;DHT22;21803;53.586;10.040;2023-10-13T00:56:38;22.20;56.10
35680;DHT22;21803;53.586;10.040;2023-10-13T00:59:08;22.20;56.10
35680;DHT22;21803;53.586;10.040;2023-10-13T01:01:35;22.20;56.10
35680;DHT22;21803;53.586;10.040;2023-10-13T01:04:02;22.20;56.10
35680;DHT22;21803;53.586;10.040;2023-10-13T01:06:30;22.20;56.10
35680;DHT22;21803;53.586;10.040;2023-10-13T01:11:39;22.30;56.10
35680;DHT22;21803;53.586;10.040;2023-10-13T01:14:05;22.20;56.10
35680;DHT22;21803;53.586;10.040;2023-10-13T01:16:30;22.20;56.10
35680;DHT22;21803;53.586;10.040;2023-10-13T01:18:56;22.20;56.00
35680;DHT22;21803;53.586;10.040;2023-10-13T01:21:26;22.20;56.10
35680;DHT22;21803;53.586;10.040;2023-10-13T01:23:53;22.20;56.00
35680;DHT22;21803;53.586;10.040;2023-10-13T01:26:19;22.20;56.00
35680;DHT22;21803;53.586;10.040;2023-10-13T01:28:56;22.20;56.00
35680;DHT22;21803;53.586;10.040;2023-10-13T01:31:22;22.20;56.00
35680;DHT22;21803;53.586;10.040;2023-10-13T01:33:54;22.20;56.00
35680;DHT22;21803;53.586;10.040;2023-10-13T01:36:23;22.20;56.10
35680;DHT22;21803;53.586;10.040;2023-10-13T01:38:49;22.20;56.10
35680;DHT22;21803;53.586;10.040;2023-10-13T01:41:15;22.20;56.10
35680;DHT22;21803;53.586;10.040;2023-10-13T01:43:41;22.20;56.10
35680;DHT22;21803;53.586;10.040;2023-10-13T01:46:07;22.20;56.10
35680;DHT22;21803;53.586;10.040;2023-10-13T01:48:34;22.20;56.10
35680;DHT22;21803;53.586;10.040;2023-10-13T01:51:04;22.20;56.00
35680;DHT22;21803;53.586;10.040;2023-10-13T01:53:31;22.30;56.10
35680;DHT22;21803;53.586;10.040;2023-10-13T01:55:56;22.20;56.00
35680;DHT22;21803;53.586;10.040;2023-10-13T01:58:23;22.30;56.10
35680;DHT22;21803;53.586;10.040;2023-10-13T02:00:51;22.20;56.00
35680;DHT22;21803;53.586;10.040;2023-10-13T02:03:17;22.30;56.10
35680;DHT22;21803;53.586;10.040;2023-10-13T02:05:43;22.20;56.00
35680;DHT22;21803;53.586;10.040;2023-10-13T02:08:20;22.20;56.00
35680;DHT22;21803;53.586;10.040;2023-10-13T02:10:50;22.20;56.00
35680;DHT22;21803;53.586;10.040;2023-10-13T02:13:17;22.20;56.10
35680;DHT22;21803;53.586;10.040;2023-10-13T02:15:46;22.20;56.00
35680;DHT22;21803;53.586;10.040;2023-10-13T02:18:15;22.20;56.00
35680;DHT22;21803;53.586;10.040;2023-10-13T02:20:53;22.20;56.00
35680;DHT22;21803;53.586;10.040;2023-10-13T02:23:29;22.20;56.00
35680;DHT22;21803;53.586;10.040;2023-10-13T02:26:01;22.20;56.00
35680;DHT22;21803;53.586;10.040;2023-10-13T02:28:36;22.20;56.00
35680;DHT22;21803;53.586;10.040;2023-10-13T02:31:02;22.20;56.00
35680;DHT22;21803;53.586;10.040;2023-10-13T02:33:32;22.20;56.00
35680;DHT22;21803;53.586;10.040;2023-10-13T02:36:03;22.20;56.00
35680;DHT22;21803;53.586;10.040;2023-10-13T02:38:31;22.20;56.10
35680;DHT22;21803;53.586;10.040;2023-10-13T02:41:13;22.20;56.00
35680;DHT22;21803;53.586;10.040;2023-10-13T02:43:51;22.20;56.00
35680;DHT22;21803;53.586;10.040;2023-10-13T02:46:21;22.20;56.10
35680;DHT22;21803;53.586;10.040;2023-10-13T02:49:05;22.20;56.10
35680;DHT22;21803;53.586;10.040;2023-10-13T02:51:38;22.20;56.10
35680;DHT22;21803;53.586;10.040;2023-10-13T02:54:07;22.20;56.00
35680;DHT22;21803;53.586;10.040;2023-10-13T02:56:37;22.30;56.10
35680;DHT22;21803;53.586;10.040;2023-10-13T02:59:03;22.20;56.00
35680;DHT22;21803;53.586;10.040;2023-10-13T03:01:33;22.20;56.00
35680;DHT22;21803;53.586;10.040;2023-10-13T03:04:00;22.20;56.00
35680;DHT22;21803;53.586;10.040;2023-10-13T03:06:27;22.20;56.00
35680;DHT22;21803;53.586;10.040;2023-10-13T03:08:59;22.20;56.00
35680;DHT22;21803;53.586;10.040;2023-10-13T03:11:44;22.20;56.00
35680;DHT22;21803;53.586;10.040;2023-10-13T03:14:19;22.20;56.00
35680;DHT22;21803;53.586;10.040;2023-10-13T03:16:59;22.20;56.00
35680;DHT22;21803;53.586;10.040;2023-10-13T03:19:28;22.20;56.00
35680;DHT22;21803;53.586;10.040;2023-10-13T03:22:05;22.30;56.10
35680;DHT22;21803;53.586;10.040;2023-10-13T03:24:35;22.20;56.00
35680;DHT22;21803;53.586;10.040;2023-10-13T03:27:04;22.20;56.00
35680;DHT22;21803;53.586;10.040;2023-10-13T03:29:37;22.20;56.10
35680;DHT22;21803;53.586;10.040;2023-10-13T03:32:12;22.20;56.00
35680;DHT22;21803;53.586;10.040;2023-10-13T03:34:38;22.20;56.00
35680;DHT22;21803;53.586;10.040;2023-10-13T03:37:18;22.20;56.20
35680;DHT22;21803;53.586;10.040;2023-10-13T03:39:45;22.20;56.00
35680;DHT22;21803;53.586;10.040;2023-10-13T03:42:11;22.20;56.10
35680;DHT22;21803;53.586;10.040;2023-10-13T03:44:54;22.20;56.10
35680;DHT22;21803;53.586;10.040;2023-10-13T03:47:20;22.20;56.00
35680;DHT22;21803;53.586;10.040;2023-10-13T03:49:53;22.30;56.10
35680;DHT22;21803;53.586;10.040;2023-10-13T03:52:39;22.20;56.00
35680;DHT22;21803;53.586;10.040;2023-10-13T03:55:04;22.20;56.00
35680;DHT22;21803;53.586;10.040;2023-10-13T03:57:31;22.20;56.00
35680;DHT22;21803;53.586;10.040;2023-10-13T04:00:03;22.20;56.10
35680;DHT22;21803;53.586;10.040;2023-10-13T04:02:34;22.20;56.00
35680;DHT22;21803;53.586;10.040;2023-10-13T04:05:02;22.20;56.00
35680;DHT22;21803;53.586;10.040;2023-10-13T04:07:33;22.20;56.00
35680;DHT22;21803;53.586;10.040;2023-10-13T04:10:07;22.20;56.10
35680;DHT22;21803;53.586;10.040;2023-10-13T04:13:05;22.20;56.10
35680;DHT22;21803;53.586;10.040;2023-10-13T04:15:49;22.20;56.00
35680;DHT22;21803;53.586;10.040;2023-10-13T04:18:40;22.20;56.00
35680;DHT22;21803;53.586;10.040;2023-10-13T04:21:23;22.20;56.00
35680;DHT22;21803;53.586;10.040;2023-10-13T04:24:12;22.20;56.00
35680;DHT22;21803;53.586;10.040;2023-10-13T04:26:44;22.30;56.10
35680;DHT22;21803;53.586;10.040;2023-10-13T04:29:29;22.20;56.00
35680;DHT22;21803;53.586;10.040;2023-10-13T04:32:16;22.20;56.10
35680;DHT22;21803;53.586;10.040;2023-10-13T04:34:57;22.20;56.00
35680;DHT22;21803;53.586;10.040;2023-10-13T04:37:43;22.20;56.10
35680;DHT22;21803;53.586;10.040;2023-10-13T04:40:40;22.20;56.00
35680;DHT22;21803;53.586;10.040;2023-10-13T04:43:23;22.20;56.10
35680;DHT22;21803;53.586;10.040;2023-10-13T04:45:59;22.20;56.10
35680;DHT22;21803;53.586;10.040;2023-10-13T04:48:39;22.20;56.10
35680;DHT22;21803;53.586;10.040;2023-10-13T04:51:05;22.20;56.10
35680;DHT22;21803;53.586;10.040;2023-10-13T04:54:09;22.20;56.00
35680;DHT22;21803;53.586;10.040;2023-10-13T04:56:51;22.30;56.10
35680;DHT22;21803;53.586;10.040;2023-10-13T04:59:39;22.20;56.10
35680;DHT22;21803;53.586;10.040;2023-10-13T05:02:23;22.20;56.00
35680;DHT22;21803;53.586;10.040;2023-10-13T05:05:08;22.20;56.00
35680;DHT22;21803;53.586;10.040;2023-10-13T05:07:47;22.20;56.00
35680;DHT22;21803;53.586;10.040;2023-10-13T05:10:32;21.20;55.50
35680;DHT22;21803;53.586;10.040;2023-10-13T05:13:17;22.20;56.00
35680;DHT22;21803;53.586;10.040;2023-10-13T05:16:01;22.20;56.00
35680;DHT22;21803;53.586;10.040;2023-10-13T05:18:45;22.20;56.00
35680;DHT22;21803;53.586;10.040;2023-10-13T05:21:29;22.20;56.00
35680;DHT22;21803;53.586;10.040;2023-10-13T05:24:14;22.20;56.60
35680;DHT22;21803;53.586;10.040;2023-10-13T05:26:58;22.20;56.10
35680;DHT22;21803;53.586;10.040;2023-10-13T05:29:43;22.20;56.00
35680;DHT22;21803;53.586;10.040;2023-10-13T05:32:27;22.20;56.10
35680;DHT22;21803;53.586;10.040;2023-10-13T05:35:12;22.20;56.10
35680;DHT22;21803;53.586;10.040;2023-10-13T05:37:56;22.20;56.10
35680;DHT22;21803;53.586;10.040;2023-10-13T05:40:50;22.20;56.20
35680;DHT22;21803;53.586;10.040;2023-10-13T05:43:35;22.20;56.20
35680;DHT22;21803;53.586;10.040;2023-10-13T05:46:19;22.30;56.20
35680;DHT22;21803;53.586;10.040;2023-10-13T05:48:50;22.20;56.20
35680;DHT22;21803;53.586;10.040;2023-10-13T05:51:31;22.20;56.20
35680;DHT22;21803;53.586;10.040;2023-10-13T05:53:59;22.20;56.20
35680;DHT22;21803;53.586;10.040;2023-10-13T05:56:43;22.20;56.20
35680;DHT22;21803;53.586;10.040;2023-10-13T05:59:28;22.20;56.20
35680;DHT22;21803;53.586;10.040;2023-10-13T06:02:14;22.20;56.10
35680;DHT22;21803;53.586;10.040;2023-10-13T06:05:01;22.20;56.10
35680;DHT22;21803;53.586;10.040;2023-10-13T06:07:46;22.20;56.20
35680;DHT22;21803;53.586;10.040;2023-10-13T06:10:30;22.20;56.20
35680;DHT22;21803;53.586;10.040;2023-10-13T06:13:14;22.20;56.20
35680;DHT22;21803;53.586;10.040;2023-10-13T06:15:58;22.20;56.20
35680;DHT22;21803;53.586;10.040;2023-10-13T06:18:42;22.20;56.20
35680;DHT22;21803;53.586;10.040;2023-10-13T06:21:26;22.20;56.20
35680;DHT22;21803;53.586;10.040;2023-10-13T06:24:10;22.20;56.20
35680;DHT22;21803;53.586;10.040;2023-10-13T06:26:54;22.20;56.20
35680;DHT22;21803;53.586;10.040;2023-10-13T06:29:38;22.20;56.20
35680;DHT22;21803;53.586;10.040;2023-10-13T06:32:04;22.20;56.20
35680;DHT22;21803;53.586;10.040;2023-10-13T06:34:39;22.20;56.30
35680;DHT22;21803;53.586;10.040;2023-10-13T06:37:14;22.20;56.30
35680;DHT22;21803;53.586;10.040;2023-10-13T06:39:56;22.20;56.30
35680;DHT22;21803;53.586;10.040;2023-10-13T06:42:27;22.20;56.30
35680;DHT22;21803;53.586;10.040;2023-10-13T06:44:56;22.20;56.30
35680;DHT22;21803;53.586;10.040;2023-10-13T06:47:22;22.20;56.40
35680;DHT22;21803;53.586;10.040;2023-10-13T06:49:48;22.20;56.40
35680;DHT22;21803;53.586;10.040;2023-10-13T06:52:19;22.20;56.40
35680;DHT22;21803;53.586;10.040;2023-10-13T06:54:50;22.20;56.40
35680;DHT22;21803;53.586;10.040;2023-10-13T06:57:15;22.20;56.40
35680;DHT22;21803;53.586;10.040;2023-10-13T06:59:46;22.20;56.40
35680;DHT22;21803;53.586;10.040;2023-10-13T07:02:11;22.20;56.40
35680;DHT22;21803;53.586;10.040;2023-10-13T07:04:49;22.20;56.50
35680;DHT22;21803;53.586;10.040;2023-10-13T07:07:22;22.20;56.50
35680;DHT22;21803;53.586;10.040;2023-10-13T07:09:49;22.20;56.50
35680;DHT22;21803;53.586;10.040;2023-10-13T07:12:20;22.20;56.50
35680;DHT22;21803;53.586;10.040;2023-10-13T07:14:52;22.20;56.50
35680;DHT22;21803;53.586;10.040;2023-10-13T07:17:21;22.20;56.50
35680;DHT22;21803;53.586;10.040;2023-10-13T07:19:53;22.20;56.50
35680;DHT22;21803;53.586;10.040;2023-10-13T07:22:19;22.20;56.50
35680;DHT22;21803;53.586;10.040;2023-10-13T07:24:49;22.20;56.50
35680;DHT22;21803;53.586;10.040;2023-10-13T07:27:22;22.20;56.60
35680;DHT22;21803;53.586;10.040;2023-10-13T07:29:51;22.20;56.60
35680;DHT22;21803;53.586;10.040;2023-10-13T07:32:23;22.20;56.60
35680;DHT22;21803;53.586;10.040;2023-10-13T07:34:54;22.20;56.60
35680;DHT22;21803;53.586;10.040;2023-10-13T07:37:23;22.20;56.60
35680;DHT22;21803;53.586;10.040;2023-10-13T07:39:54;22.20;56.60
35680;DHT22;21803;53.586;10.040;2023-10-13T07:42:24;22.20;56.60
35680;DHT22;21803;53.586;10.040;2023-10-13T07:44:52;22.20;56.70
35680;DHT22;21803;53.586;10.040;2023-10-13T07:47:21;22.20;56.70
35680;DHT22;21803;53.586;10.040;2023-10-13T07:49:50;22.20;56.70
35680;DHT22;21803;53.586;10.040;2023-10-13T07:52:16;22.20;56.70
35680;DHT22;21803;53.586;10.040;2023-10-13T07:55:01;22.20;56.80
35680;DHT22;21803;53.586;10.040;2023-10-13T07:57:47;22.20;56.90
35680;DHT22;21803;53.586;10.040;2023-10-13T08:00:25;22.20;57.30
35680;DHT22;21803;53.586;10.040;2023-10-13T08:02:58;22.20;57.50
35680;DHT22;21803;53.586;10.040;2023-10-13T08:05:53;22.20;58.00
35680;DHT22;21803;53.586;10.040;2023-10-13T08:08:37;22.20;58.10
35680;DHT22;21803;53.586;10.040;2023-10-13T08:11:07;22.20;58.20
35680;DHT22;21803;53.586;10.040;2023-10-13T08:13:58;22.20;58.20
35680;DHT22;21803;53.586;10.040;2023-10-13T08:16:37;22.20;58.40
35680;DHT22;21803;53.586;10.040;2023-10-13T08:19:22;22.30;58.40
35680;DHT22;21803;53.586;10.040;2023-10-13T08:22:05;22.20;58.30
35680;DHT22;21803;53.586;10.040;2023-10-13T08:25:00;22.20;58.50
35680;DHT22;21803;53.586;10.040;2023-10-13T08:27:46;22.30;58.60
35680;DHT22;21803;53.586;10.040;2023-10-13T08:30:16;22.20;58.60
35680;DHT22;21803;53.586;10.040;2023-10-13T08:32:58;22.20;58.60
35680;DHT22;21803;53.586;10.040;2023-10-13T08:35:25;22.20;58.70
35680;DHT22;21803;53.586;10.040;2023-10-13T08:38:03;22.20;58.60
35680;DHT22;21803;53.586;10.040;2023-10-13T08:40:30;22.30;58.70
35680;DHT22;21803;53.586;10.040;2023-10-13T08:43:14;22.20;58.70
35680;DHT22;21803;53.586;10.040;2023-10-13T08:45:42;22.30;58.80
35680;DHT22;21803;53.586;10.040;2023-10-13T08:48:10;22.30;58.70
35680;DHT22;21803;53.586;10.040;2023-10-13T08:50:37;22.20;58.70
35680;DHT22;21803;53.586;10.040;2023-10-13T08:53:28;22.20;58.70
35680;DHT22;21803;53.586;10.040;2023-10-13T08:56:03;22.20;58.70
35680;DHT22;21803;53.586;10.040;2023-10-13T08:58:48;22.20;58.70
35680;DHT22;21803;53.586;10.040;2023-10-13T09:01:35;22.20;58.70
35680;DHT22;21803;53.586;10.040;2023-10-13T09:04:20;22.20;58.70
35680;DHT22;21803;53.586;10.040;2023-10-13T09:07:04;22.20;58.70
35680;DHT22;21803;53.586;10.040;2023-10-13T09:12:21;22.20;58.70
35680;DHT22;21803;53.586;10.040;2023-10-13T09:15:09;22.20;58.80
35680;DHT22;21803;53.586;10.040;2023-10-13T09:17:47;22.20;58.80
35680;DHT22;21803;53.586;10.040;2023-10-13T09:20:16;22.20;58.80
35680;DHT22;21803;53.586;10.040;2023-10-13T09:22:52;22.20;58.80
35680;DHT22;21803;53.586;10.040;2023-10-13T09:25:37;22.20;58.80
35680;DHT22;21803;53.586;10.040;2023-10-13T09:30:46;22.20;59.00
35680;DHT22;21803;53.586;10.040;2023-10-13T09:33:11;22.20;59.10
35680;DHT22;21803;53.586;10.040;2023-10-13T09:35:46;22.20;59.30
35680;DHT22;21803;53.586;10.040;2023-10-13T09:38:15;22.20;59.50
35680;DHT22;21803;53.586;10.040;2023-10-13T09:40:42;22.20;59.60
35680;DHT22;21803;53.586;10.040;2023-10-13T09:43:27;22.30;59.70
35680;DHT22;21803;53.586;10.040;2023-10-13T09:45:59;22.20;59.80
35680;DHT22;21803;53.586;10.040;2023-10-13T09:48:36;22.20;59.70
35680;DHT22;21803;53.586;10.040;2023-10-13T09:51:03;22.20;59.70
35680;DHT22;21803;53.586;10.040;2023-10-13T09:53:35;22.30;59.80
35680;DHT22;21803;53.586;10.040;2023-10-13T09:56:16;22.30;59.70
35680;DHT22;21803;53.586;10.040;2023-10-13T09:58:55;22.20;59.60
35680;DHT22;21803;53.586;10.040;2023-10-13T10:01:25;22.20;59.70
35680;DHT22;21803;53.586;10.040;2023-10-13T10:04:11;22.20;59.60
35680;DHT22;21803;53.586;10.040;2023-10-13T10:06:52;22.30;59.60
35680;DHT22;21803;53.586;10.040;2023-10-13T10:09:18;22.20;59.60
35680;DHT22;21803;53.586;10.040;2023-10-13T10:14:58;22.30;59.70
35680;DHT22;21803;53.586;10.040;2023-10-13T10:17:28;22.30;59.60
35680;DHT22;21803;53.586;10.040;2023-10-13T10:19:55;22.80;59.90
35680;DHT22;21803;53.586;10.040;2023-10-13T10:22:29;22.30;59.70
35680;DHT22;21803;53.586;10.040;2023-10-13T10:24:59;22.30;59.70
35680;DHT22;21803;53.586;10.040;2023-10-13T10:27:31;22.30;59.70
35680;DHT22;21803;53.586;10.040;2023-10-13T10:29:57;22.30;59.70
35680;DHT22;21803;53.586;10.040;2023-10-13T10:35:06;22.20;59.70
35680;DHT22;21803;53.586;10.040;2023-10-13T10:37:33;22.20;60.40
35680;DHT22;21803;53.586;10.040;2023-10-13T10:40:01;22.20;59.70
35680;DHT22;21803;53.586;10.040;2023-10-13T10:42:31;22.30;59.70
35680;DHT22;21803;53.586;10.040;2023-10-13T10:44:56;22.20;59.70
35680;DHT22;21803;53.586;10.040;2023-10-13T10:47:30;22.30;59.70
35680;DHT22;21803;53.586;10.040;2023-10-13T10:49:59;22.30;59.70
35680;DHT22;21803;53.586;10.040;2023-10-13T10:52:45;22.30;59.70
35680;DHT22;21803;53.586;10.040;2023-10-13T10:55:12;22.30;59.70
35680;DHT22;21803;53.586;10.040;2023-10-13T10:57:40;22.20;59.60
35680;DHT22;21803;53.586;10.040;2023-10-13T11:00:18;22.30;59.60
35680;DHT22;21803;53.586;10.040;2023-10-13T11:02:54;22.30;59.60
35680;DHT22;21803;53.586;10.040;2023-10-13T11:05:20;22.30;59.60
35680;DHT22;21803;53.586;10.040;2023-10-13T11:07:46;22.30;59.60
35680;DHT22;21803;53.586;10.040;2023-10-13T11:10:18;22.30;59.60
35680;DHT22;21803;53.586;10.040;2023-10-13T11:12:57;22.30;59.60
35680;DHT22;21803;53.586;10.040;2023-10-13T11:15:43;22.30;59.60
35680;DHT22;21803;53.586;10.040;2023-10-13T11:18:13;22.30;59.60
35680;DHT22;21803;53.586;10.040;2023-10-13T11:20:48;22.30;59.50
35680;DHT22;21803;53.586;10.040;2023-10-13T11:23:19;22.30;59.50
35680;DHT22;21803;53.586;10.040;2023-10-13T11:25:59;22.30;59.50
35680;DHT22;21803;53.586;10.040;2023-10-13T11:28:25;22.30;59.50
35680;DHT22;21803;53.586;10.040;2023-10-13T11:30:54;22.30;59.60
35680;DHT22;21803;53.586;10.040;2023-10-13T11:33:36;22.30;59.60
35680;DHT22;21803;53.586;10.040;2023-10-13T11:36:02;22.30;59.50
35680;DHT22;21803;53.586;10.040;2023-10-13T11:38:30;22.30;59.50
35680;DHT22;21803;53.586;10.040;2023-10-13T11:41:15;22.30;59.40
35680;DHT22;21803;53.586;10.040;2023-10-13T11:48:38;22.30;59.40
35680;DHT22;21803;53.586;10.040;2023-10-13T11:51:06;22.30;59.50
35680;DHT22;21803;53.586;10.040;2023-10-13T11:53:33;22.30;59.50
35680;DHT22;21803;53.586;10.040;2023-10-13T11:55:59;22.30;59.50
35680;DHT22;21803;53.586;10.040;2023-10-13T11:58:25;22.30;59.50
35680;DHT22;21803;53.586;10.040;2023-10-13T12:00:50;22.30;59.40
35680;DHT22;21803;53.586;10.040;2023-10-13T12:03:16;22.30;59.40
35680;DHT22;21803;53.586;10.040;2023-10-13T12:06:00;22.30;59.40
35680;DHT22;21803;53.586;10.040;2023-10-13T12:08:45;22.30;59.40
35680;DHT22;21803;53.586;10.040;2023-10-13T12:11:18;22.30;59.40
35680;DHT22;21803;53.586;10.040;2023-10-13T12:13:56;22.30;59.50
35680;DHT22;21803;53.586;10.040;2023-10-13T12:16:22;22.30;59.40
35680;DHT22;21803;53.586;10.040;2023-10-13T12:18:48;22.30;59.40
35680;DHT22;21803;53.586;10.040;2023-10-13T12:21:19;22.20;59.40
35680;DHT22;21803;53.586;10.040;2023-10-13T12:23:46;22.30;59.40
35680;DHT22;21803;53.586;10.040;2023-10-13T12:26:12;22.30;59.40
35680;DHT22;21803;53.586;10.040;2023-10-13T12:29:00;22.30;59.40
35680;DHT22;21803;53.586;10.040;2023-10-13T12:31:35;22.30;59.50
35680;DHT22;21803;53.586;10.040;2023-10-13T12:34:04;22.30;59.50
35680;DHT22;21803;53.586;10.040;2023-10-13T12:36:39;22.30;59.50
35680;DHT22;21803;53.586;10.040;2023-10-13T12:39:18;22.30;59.50
35680;DHT22;21803;53.586;10.040;2023-10-13T12:42:03;22.40;59.50
35680;DHT22;21803;53.586;10.040;2023-10-13T12:44:47;22.30;59.40
35680;DHT22;21803;53.586;10.040;2023-10-13T12:47:31;22.40;59.50
35680;DHT22;21803;53.586;10.040;2023-10-13T12:50:15;22.30;59.50
35680;DHT22;21803;53.586;10.040;2023-10-13T12:52:59;22.30;59.50
35680;DHT22;21803;53.586;10.040;2023-10-13T12:55:25;22.40;59.50
35680;DHT22;21803;53.586;10.040;2023-10-13T12:57:51;22.30;59.50
35680;DHT22;21803;53.586;10.040;2023-10-13T13:00:16;22.30;59.40
35680;DHT22;21803;53.586;10.040;2023-10-13T13:02:46;22.30;59.50
35680;DHT22;21803;53.586;10.040;2023-10-13T13:05:12;22.30;59.40
35680;DHT22;21803;53.586;10.040;2023-10-13T13:07:39;22.30;59.50
35680;DHT22;21803;53.586;10.040;2023-10-13T13:10:18;22.30;59.40
35680;DHT22;21803;53.586;10.040;2023-10-13T13:12:43;22.30;59.40
35680;DHT22;21803;53.586;10.040;2023-10-13T13:15:09;22.30;59.40
35680;DHT22;21803;53.586;10.040;2023-10-13T13:17:37;22.30;59.40
35680;DHT22;21803;53.586;10.040;2023-10-13T13:20:07;22.30;59.40
35680;DHT22;21803;53.586;10.040;2023-10-13T13:22:39;22.30;59.40
35680;DHT22;21803;53.586;10.040;2023-10-13T13:25:06;22.30;59.50
35680;DHT22;21803;53.586;10.040;2023-10-13T13:27:35;22.30;59.50
35680;DHT22;21803;53.586;10.040;2023-10-13T13:30:02;22.30;59.50
35680;DHT22;21803;53.586;10.040;2023-10-13T13:32:37;22.30;59.40
35680;DHT22;21803;53.586;10.040;2023-10-13T13:35:03;22.30;59.50
35680;DHT22;21803;53.586;10.040;2023-10-13T13:37:33;22.30;59.50
35680;DHT22;21803;53.586;10.040;2023-10-13T13:39:59;22.30;59.40
35680;DHT22;21803;53.586;10.040;2023-10-13T13:42:47;22.20;59.30
35680;DHT22;21803;53.586;10.040;2023-10-13T13:45:14;22.30;59.30
35680;DHT22;21803;53.586;10.040;2023-10-13T13:47:54;22.30;59.40
35680;DHT22;21803;53.586;10.040;2023-10-13T13:50:24;22.30;59.40
35680;DHT22;21803;53.586;10.040;2023-10-13T13:52:56;22.30;59.50
35680;DHT22;21803;53.586;10.040;2023-10-13T13:55:22;22.40;59.50
35680;DHT22;21803;53.586;10.040;2023-10-13T13:57:49;22.30;59.50
35680;DHT22;21803;53.586;10.040;2023-10-13T14:00:16;22.30;59.50
35680;DHT22;21803;53.586;10.040;2023-10-13T14:02:43;22.30;59.50
35680;DHT22;21803;53.586;10.040;2023-10-13T14:05:15;22.30;59.50
35680;DHT22;21803;53.586;10.040;2023-10-13T14:07:43;22.30;59.40
35680;DHT22;21803;53.586;10.040;2023-10-13T14:10:14;22.30;59.50
35680;DHT22;21803;53.586;10.040;2023-10-13T14:13:05;22.30;59.50
35680;DHT22;21803;53.586;10.040;2023-10-13T14:15:39;22.40;59.50
35680;DHT22;21803;53.586;10.040;2023-10-13T14:18:09;22.30;59.60
35680;DHT22;21803;53.586;10.040;2023-10-13T14:20:43;22.30;59.60
35680;DHT22;21803;53.586;10.040;2023-10-13T14:23:09;22.30;59.60
35680;DHT22;21803;53.586;10.040;2023-10-13T14:25:38;22.30;59.60
35680;DHT22;21803;53.586;10.040;2023-10-13T14:28:06;22.30;59.60
35680;DHT22;21803;53.586;10.040;2023-10-13T14:30:32;22.30;59.60
35680;DHT22;21803;53.586;10.040;2023-10-13T14:32:58;22.30;59.60
35680;DHT22;21803;53.586;10.040;2023-10-13T14:35:24;22.30;59.60
35680;DHT22;21803;53.586;10.040;2023-10-13T14:37:54;22.30;59.70
35680;DHT22;21803;53.586;10.040;2023-10-13T14:40:20;22.30;59.60
35680;DHT22;21803;53.586;10.040;2023-10-13T14:42:48;22.30;59.60
35680;DHT22;21803;53.586;10.040;2023-10-13T14:45:14;22.30;59.70
35680;DHT22;21803;53.586;10.040;2023-10-13T14:47:42;22.30;59.70
35680;DHT22;21803;53.586;10.040;2023-10-13T14:50:09;22.30;59.70
35680;DHT22;21803;53.586;10.040;2023-10-13T14:52:42;22.30;59.70
35680;DHT22;21803;53.586;10.040;2023-10-13T14:55:09;22.30;59.70
35680;DHT22;21803;53.586;10.040;2023-10-13T14:57:45;22.30;59.70
35680;DHT22;21803;53.586;10.040;2023-10-13T15:00:11;22.30;59.70
35680;DHT22;21803;53.586;10.040;2023-10-13T15:02:39;22.30;59.70
35680;DHT22;21803;53.586;10.040;2023-10-13T15:05:04;22.30;59.70
35680;DHT22;21803;53.586;10.040;2023-10-13T15:07:30;22.30;59.70
35680;DHT22;21803;53.586;10.040;2023-10-13T15:09:55;22.30;59.70
35680;DHT22;21803;53.586;10.040;2023-10-13T15:12:22;22.30;59.60
35680;DHT22;21803;53.586;10.040;2023-10-13T15:14:48;22.30;59.70
35680;DHT22;21803;53.586;10.040;2023-10-13T15:17:13;22.30;60.30
35680;DHT22;21803;53.586;10.040;2023-10-13T15:19:41;22.30;59.70
35680;DHT22;21803;53.586;10.040;2023-10-13T15:22:08;22.30;60.40
35680;DHT22;21803;53.586;10.040;2023-10-13T15:24:42;22.30;59.70
35680;DHT22;21803;53.586;10.040;2023-10-13T15:27:11;22.30;59.70
35680;DHT22;21803;53.586;10.040;2023-10-13T15:29:36;22.30;59.70
35680;DHT22;21803;53.586;10.040;2023-10-13T15:32:06;22.30;59.70
35680;DHT22;21803;53.586;10.040;2023-10-13T15:34:58;22.30;59.70
35680;DHT22;21803;53.586;10.040;2023-10-13T15:37:23;22.30;59.70
35680;DHT22;21803;53.586;10.040;2023-10-13T15:39:50;22.30;59.70
35680;DHT22;21803;53.586;10.040;2023-10-13T15:42:17;22.30;59.70
35680;DHT22;21803;53.586;10.040;2023-10-13T15:44:43;22.30;59.70
35680;DHT22;21803;53.586;10.040;2023-10-13T15:47:09;22.30;59.70
35680;DHT22;21803;53.586;10.040;2023-10-13T15:49:37;22.30;59.70
35680;DHT22;21803;53.586;10.040;2023-10-13T15:52:06;22.30;59.80
35680;DHT22;21803;53.586;10.040;2023-10-13T15:54:32;22.30;59.70
35680;DHT22;21803;53.586;10.040;2023-10-13T15:57:00;22.30;59.70
35680;DHT22;21803;53.586;10.040;2023-10-13T15:59:26;22.40;59.80
35680;DHT22;21803;53.586;10.040;2023-10-13T16:01:51;22.30;59.70
35680;DHT22;21803;53.586;10.040;2023-10-13T16:04:23;22.30;59.70
35680;DHT22;21803;53.586;10.040;2023-10-13T16:06:49;22.30;59.70
35680;DHT22;21803;53.586;10.040;2023-10-13T16:09:17;22.30;59.70
35680;DHT22;21803;53.586;10.040;2023-10-13T16:11:52;22.40;59.80
35680;DHT22;21803;53.586;10.040;2023-10-13T16:14:18;22.30;59.70